Time;durP1;ratioP1;P1;durP2;ratioP2;P2;SDS_P1;SDS_P2;PMS_P1;PMS_P2;Temp;Humidity;BMP_temperature;BMP_pressure;BME280_temperature;BME280_humidity;BME280_pressure;Samples;Min_cycle;Max_cycle;Signal;HPM_P1;HPM_P2
2022/10/28 00:01:09;;;;;;;1999.90;999.90;;;13.30;99.90;;;;;;5070835;28;20466;-67
2022/10/28 00:03:38;;;;;;;1999.90;999.90;;;13.30;99.90;;;;;;5070708;28;20450;-67
2022/10/28 00:06:08;;;;;;;1999.90;999.90;;;13.30;99.90;;;;;;5070570;28;20443;-67
2022/10/28 00:08:35;;;;;;;1999.90;999.90;;;13.20;99.90;;;;;;5070945;28;20984;-68
2022/10/28 00:11:04;;;;;;;1999.90;999.90;;;13.20;99.90;;;;;;5070578;28;20924;-67
2022/10/28 00:13:31;;;;;;;1999.90;999.90;;;13.20;99.90;;;;;;5070491;28;20431;-67
2022/10/28 00:16:07;;;;;;;1999.90;999.90;;;13.10;99.90;;;;;;5069879;28;20811;-67
2022/10/28 00:18:34;;;;;;;1999.90;999.90;;;13.10;99.90;;;;;;5070631;28;20831;-67
2022/10/28 00:21:02;;;;;;;1999.90;999.90;;;13.10;99.90;;;;;;5070695;28;20443;-67
2022/10/28 00:23:30;;;;;;;1999.90;999.90;;;13.10;99.90;;;;;;5068429;28;20484;-66
2022/10/28 00:26:04;;;;;;;1999.90;999.90;;;13.20;99.90;;;;;;5066892;28;20479;-67
2022/10/28 00:28:31;;;;;;;1999.90;999.90;;;13.20;99.90;;;;;;5073847;28;20975;-67
2022/10/28 00:31:04;;;;;;;1999.90;999.90;;;13.30;99.90;;;;;;5078098;28;20463;-67
2022/10/28 00:33:31;;;;;;;1999.90;999.90;;;13.30;99.90;;;;;;5069002;28;20470;-67
2022/10/28 00:36:10;;;;;;;1999.90;999.90;;;13.30;99.90;;;;;;5115761;27;20928;-66
2022/10/28 00:38:37;;;;;;;1999.90;999.90;;;13.20;99.90;;;;;;5116581;28;20468;-67
2022/10/28 00:41:04;;;;;;;1999.90;999.90;;;13.20;99.90;;;;;;5107082;28;20532;-67
2022/10/28 00:43:36;;;;;;;1999.90;999.90;;;13.10;99.90;;;;;;5106790;28;20454;-66
2022/10/28 00:46:03;;;;;;;1999.90;999.90;;;13.10;99.90;;;;;;5107257;28;20442;-66
2022/10/28 00:48:30;;;;;;;1999.90;999.90;;;13.20;99.90;;;;;;5107389;28;20466;-67
2022/10/28 00:50:57;;;;;;;1999.90;999.90;;;13.30;99.90;;;;;;5106981;28;20449;-66
2022/10/28 00:53:30;;;;;;;1999.90;999.90;;;13.50;99.90;;;;;;5106805;28;20815;-66
2022/10/28 00:55:58;;;;;;;1999.90;999.90;;;13.60;99.90;;;;;;5106657;28;20484;-66
2022/10/28 00:58:26;;;;;;;1999.90;999.90;;;13.70;99.90;;;;;;5107022;28;20473;-67
2022/10/28 01:00:53;;;;;;;1999.90;999.90;;;13.80;99.90;;;;;;5106579;28;20847;-66
2022/10/28 01:03:20;;;;;;;1999.90;999.90;;;13.80;99.90;;;;;;5106889;28;20451;-66
2022/10/28 01:05:49;;;;;;;1999.90;999.90;;;13.90;99.90;;;;;;5106706;28;20449;-67
2022/10/28 01:08:16;;;;;;;1999.90;999.90;;;13.80;99.90;;;;;;5106965;28;21036;-66
2022/10/28 01:11:08;;;;;;;1999.90;999.90;;;13.80;99.90;;;;;;5106907;28;20947;-66
2022/10/28 01:13:43;;;;;;;1999.90;999.90;;;13.80;99.90;;;;;;5106688;28;20445;-66
2022/10/28 01:16:23;;;;;;;1999.90;999.90;;;13.70;99.90;;;;;;5106702;28;20499;-66
2022/10/28 01:19:00;;;;;;;1999.90;999.90;;;13.60;99.90;;;;;;5106753;28;20468;-66
2022/10/28 01:21:57;;;;;;;1999.90;999.90;;;13.60;99.90;;;;;;5106289;28;20983;-66
2022/10/28 01:24:40;;;;;;;1999.90;999.90;;;13.50;99.90;;;;;;5103796;28;20453;-66
2022/10/28 01:27:25;;;;;;;1999.90;999.90;;;13.40;99.90;;;;;;5106720;28;20441;-67
2022/10/28 01:30:06;;;;;;;1999.90;999.90;;;13.20;99.90;;;;;;5107012;28;20441;-67
2022/10/28 01:32:43;;;;;;;1999.90;999.90;;;13.20;99.90;;;;;;5105846;28;20540;-66
2022/10/28 01:35:16;;;;;;;1999.90;999.90;;;13.10;99.90;;;;;;5106130;28;20820;-66
2022/10/28 01:37:52;;;;;;;1999.90;999.90;;;13.00;99.90;;;;;;5106391;28;20741;-66
2022/10/28 01:40:26;;;;;;;1999.90;999.90;;;12.90;99.90;;;;;;5106426;28;20826;-66
2022/10/28 01:43:01;;;;;;;1999.90;999.90;;;12.80;99.90;;;;;;5105777;28;20453;-66
2022/10/28 01:45:35;;;;;;;1999.90;999.90;;;12.80;99.90;;;;;;5103649;28;20966;-66
2022/10/28 01:48:09;;;;;;;1999.90;999.90;;;12.80;99.90;;;;;;5092806;28;20457;-66
2022/10/28 01:50:41;;;;;;;1999.90;999.90;;;12.80;99.90;;;;;;5092805;28;20446;-66
2022/10/28 01:53:13;;;;;;;1999.90;999.90;;;12.70;99.90;;;;;;5092672;28;20446;-66
2022/10/28 01:55:45;;;;;;;1999.90;999.90;;;12.70;99.90;;;;;;5092471;28;20489;-66
2022/10/28 01:58:17;;;;;;;1999.90;999.90;;;12.60;99.90;;;;;;5092732;28;20459;-66
2022/10/28 02:00:45;;;;;;;1999.90;999.90;;;12.60;99.90;;;;;;5092014;28;20442;-66
2022/10/28 02:03:13;;;;;;;1999.90;999.90;;;12.50;99.90;;;;;;5092231;28;20449;-65
2022/10/28 02:05:43;;;;;;;1999.90;999.90;;;12.50;99.90;;;;;;5092137;28;20822;-66
2022/10/28 02:08:28;;;;;;;1999.90;999.90;;;12.50;99.90;;;;;;5092257;28;21084;-66
2022/10/28 02:11:06;;;;;;;1999.90;999.90;;;12.40;99.90;;;;;;5091891;28;20816;-66
2022/10/28 02:13:41;;;;;;;1999.90;999.90;;;12.40;99.90;;;;;;5091965;28;20450;-66
2022/10/28 02:16:15;;;;;;;1999.90;999.90;;;12.40;99.90;;;;;;5091731;28;20478;-66
2022/10/28 02:18:49;;;;;;;1999.90;999.90;;;12.40;99.90;;;;;;5092061;28;20458;-66
2022/10/28 02:21:25;;;;;;;1999.90;999.90;;;12.40;99.90;;;;;;5091715;28;21065;-66
2022/10/28 02:23:56;;;;;;;1999.90;999.90;;;12.30;99.90;;;;;;5091552;28;20449;-66
2022/10/28 02:26:29;;;;;;;1999.90;999.90;;;12.40;99.90;;;;;;5091730;28;20441;-66
2022/10/28 02:29:02;;;;;;;1999.90;999.90;;;12.40;99.90;;;;;;5091843;28;20466;-66
2022/10/28 02:31:33;;;;;;;1999.90;999.90;;;12.50;99.90;;;;;;5091429;28;20442;-67
2022/10/28 02:34:06;;;;;;;1999.90;999.90;;;12.50;99.90;;;;;;5091428;28;20457;-66
2022/10/28 02:36:37;;;;;;;1999.90;999.90;;;12.40;99.90;;;;;;5091438;28;20482;-66
2022/10/28 02:39:05;;;;;;;1999.90;999.90;;;12.40;99.90;;;;;;5091788;28;20473;-66
2022/10/28 02:41:39;;;;;;;1999.90;999.90;;;12.40;99.90;;;;;;5091284;28;20453;-66
2022/10/28 02:44:10;;;;;;;1999.90;999.90;;;12.40;99.90;;;;;;5091573;28;20894;-66
2022/10/28 02:46:42;;;;;;;1999.90;999.90;;;12.40;99.90;;;;;;5091153;28;20434;-66
2022/10/28 02:49:12;;;;;;;1999.90;999.90;;;12.40;99.90;;;;;;5091918;28;20470;-66
2022/10/28 02:51:44;;;;;;;1999.90;999.90;;;12.40;99.90;;;;;;5091273;28;20449;-66
2022/10/28 02:54:14;;;;;;;1999.90;999.90;;;12.30;99.90;;;;;;5091828;28;20453;-66
2022/10/28 02:56:48;;;;;;;1999.90;999.90;;;12.20;99.90;;;;;;5091259;28;21007;-66
2022/10/28 02:59:14;;;;;;;1999.90;999.90;;;12.30;99.90;;;;;;5090201;28;20469;-66
2022/10/28 03:01:41;;;;;;;1999.90;999.90;;;12.20;99.90;;;;;;5090531;28;20443;-66
2022/10/28 03:04:09;;;;;;;1999.90;999.90;;;12.20;99.90;;;;;;5091177;28;20447;-66
2022/10/28 03:06:36;;;;;;;1999.90;999.90;;;12.30;99.90;;;;;;5090783;28;20439;-66
2022/10/28 03:09:03;;;;;;;1999.90;999.90;;;12.30;99.90;;;;;;5090960;28;20474;-66
2022/10/28 03:11:30;;;;;;;1999.90;999.90;;;12.30;99.90;;;;;;5090565;28;20446;-66
2022/10/28 03:13:56;;;;;;;1999.90;999.90;;;12.30;99.90;;;;;;5090303;28;20990;-67
2022/10/28 03:16:25;;;;;;;1999.90;999.90;;;12.30;99.90;;;;;;5090727;28;20497;-66
2022/10/28 03:18:52;;;;;;;1999.90;999.90;;;12.30;99.90;;;;;;5090930;28;20539;-66
2022/10/28 03:21:20;;;;;;;1999.90;999.90;;;12.30;99.90;;;;;;5090487;28;20477;-66
2022/10/28 03:23:47;;;;;;;1999.90;999.90;;;12.30;99.90;;;;;;5090403;28;20438;-66
2022/10/28 03:26:14;;;;;;;1999.90;999.90;;;12.30;99.90;;;;;;5090378;28;20449;-66
2022/10/28 03:28:40;;;;;;;1999.90;999.90;;;12.30;99.90;;;;;;5091136;28;20470;-66
2022/10/28 03:31:07;;;;;;;1999.90;999.90;;;12.40;99.90;;;;;;5090498;28;20446;-66
2022/10/28 03:33:34;;;;;;;1999.90;999.90;;;12.50;99.90;;;;;;5090235;28;20442;-65
2022/10/28 03:36:00;;;;;;;1999.90;999.90;;;12.50;99.90;;;;;;5090001;28;20489;-66
2022/10/28 03:38:29;;;;;;;1999.90;999.90;;;12.60;99.90;;;;;;5090438;28;21222;-66
2022/10/28 03:40:55;;;;;;;1999.90;999.90;;;12.60;99.90;;;;;;5090384;28;20473;-66
2022/10/28 03:43:22;;;;;;;1999.90;999.90;;;12.60;99.90;;;;;;5089895;28;20944;-67
2022/10/28 03:45:49;;;;;;;1999.90;999.90;;;12.60;99.90;;;;;;5090364;28;20453;-66
2022/10/28 03:48:16;;;;;;;1999.90;999.90;;;12.60;99.90;;;;;;5090259;28;20975;-66
2022/10/28 03:50:42;;;;;;;1999.90;999.90;;;12.70;99.90;;;;;;5089938;28;20462;-67
2022/10/28 03:53:09;;;;;;;1999.90;999.90;;;12.80;99.90;;;;;;5089744;28;20446;-67
2022/10/28 03:55:37;;;;;;;1999.90;999.90;;;12.80;99.90;;;;;;5090092;28;20485;-66
2022/10/28 03:58:04;;;;;;;1999.90;999.90;;;12.90;99.90;;;;;;5090402;28;20817;-66
2022/10/28 04:00:31;;;;;;;1999.90;999.90;;;12.90;99.90;;;;;;5090366;28;20442;-66
2022/10/28 04:02:57;;;;;;;1999.90;999.90;;;13.00;99.90;;;;;;5089671;28;20906;-67
2022/10/28 04:05:24;;;;;;;1999.90;999.90;;;13.00;99.90;;;;;;5090058;28;20449;-66
2022/10/28 04:07:52;;;;;;;1999.90;999.90;;;13.10;99.90;;;;;;5090161;28;20466;-66
2022/10/28 04:10:19;;;;;;;1999.90;999.90;;;13.20;99.90;;;;;;5090258;28;20553;-66
2022/10/28 04:12:47;;;;;;;1999.90;999.90;;;13.20;99.90;;;;;;5089555;28;20469;-67
2022/10/28 04:15:14;;;;;;;1999.90;999.90;;;13.20;99.90;;;;;;5089965;28;20474;-66
2022/10/28 04:17:41;;;;;;;1999.90;999.90;;;13.20;99.90;;;;;;5090154;28;20477;-66
2022/10/28 04:20:08;;;;;;;1999.90;999.90;;;13.20;99.90;;;;;;5089897;28;20446;-66
2022/10/28 04:22:35;;;;;;;1999.90;999.90;;;13.20;99.90;;;;;;5089221;28;20442;-67
2022/10/28 04:25:02;;;;;;;1999.90;999.90;;;13.20;99.90;;;;;;5089770;28;20446;-66
2022/10/28 04:27:29;;;;;;;1999.90;999.90;;;13.20;99.90;;;;;;5090064;28;20446;-66
2022/10/28 04:29:57;;;;;;;1999.90;999.90;;;13.20;99.90;;;;;;5089781;28;20449;-66
2022/10/28 04:32:24;;;;;;;1999.90;999.90;;;13.20;99.90;;;;;;5088317;28;20437;-66
2022/10/28 04:34:50;;;;;;;1999.90;999.90;;;13.30;99.90;;;;;;5082534;28;20537;-67
2022/10/28 04:37:17;;;;;;;1999.90;999.90;;;13.30;99.90;;;;;;5084410;28;20438;-68
2022/10/28 04:39:44;;;;;;;1999.90;999.90;;;13.30;99.90;;;;;;5086058;28;20446;-69
2022/10/28 04:42:10;;;;;;;1999.90;999.90;;;13.20;99.90;;;;;;5075398;28;20458;-69
2022/10/28 04:44:37;;;;;;;1999.90;999.90;;;13.20;99.90;;;;;;5083289;28;20438;-67
2022/10/28 04:47:05;;;;;;;1999.90;999.90;;;13.30;99.90;;;;;;5085056;28;20461;-67
2022/10/28 04:49:32;;;;;;;1999.90;999.90;;;13.30;99.90;;;;;;5084471;28;20458;-67
2022/10/28 04:51:59;;;;;;;1999.90;999.90;;;13.30;99.90;;;;;;5086909;28;20446;-67
2022/10/28 04:54:26;;;;;;;1999.90;999.90;;;13.30;99.90;;;;;;5084858;28;20446;-68
2022/10/28 04:56:54;;;;;;;1999.90;999.90;;;13.30;99.90;;;;;;5083081;28;21024;-67
2022/10/28 04:59:21;;;;;;;1999.90;999.90;;;13.40;99.90;;;;;;5086567;28;20462;-67
2022/10/28 05:01:47;;;;;;;1999.90;999.90;;;13.40;99.90;;;;;;5082925;28;20749;-67
2022/10/28 05:04:16;;;;;;;1999.90;999.90;;;13.50;99.90;;;;;;5073755;28;20457;-68
2022/10/28 05:06:43;;;;;;;1999.90;999.90;;;13.50;99.90;;;;;;5075644;28;20449;-68
2022/10/28 05:09:09;;;;;;;1999.90;999.90;;;13.50;99.90;;;;;;5077169;28;20473;-68
2022/10/28 05:11:36;;;;;;;1999.90;999.90;;;13.50;99.90;;;;;;5076753;28;20446;-67
2022/10/28 05:14:03;;;;;;;1999.90;999.90;;;13.50;99.90;;;;;;5077105;28;20450;-68
2022/10/28 05:16:30;;;;;;;1999.90;999.90;;;13.60;99.90;;;;;;5078156;28;20569;-67
2022/10/28 05:18:57;;;;;;;1999.90;999.90;;;13.50;99.90;;;;;;5076115;28;20474;-69
2022/10/28 05:21:26;;;;;;;1999.90;999.90;;;13.60;99.90;;;;;;5083270;28;20449;-68
2022/10/28 05:23:52;;;;;;;1999.90;999.90;;;13.60;99.90;;;;;;5087204;28;20900;-69
2022/10/28 05:26:19;;;;;;;1999.90;999.90;;;13.60;99.90;;;;;;5088399;28;20722;-69
2022/10/28 05:28:49;;;;;;;1999.90;999.90;;;13.50;99.90;;;;;;5092294;28;20458;-68
2022/10/28 05:31:16;;;;;;;1999.90;999.90;;;13.50;99.90;;;;;;5092316;28;20491;-69
2022/10/28 05:33:43;;;;;;;1999.90;999.90;;;13.50;99.90;;;;;;5092551;28;20812;-69
2022/10/28 05:36:10;;;;;;;1999.90;999.90;;;13.40;99.90;;;;;;5092635;28;21034;-68
2022/10/28 05:38:38;;;;;;;1999.90;999.90;;;13.40;99.90;;;;;;5092957;28;20469;-68
2022/10/28 05:41:05;;;;;;;1999.90;999.90;;;13.30;99.90;;;;;;5092617;28;20503;-68
2022/10/28 05:43:32;;;;;;;1999.90;999.90;;;13.30;99.90;;;;;;5092380;28;20446;-68
2022/10/28 05:45:59;;;;;;;1999.90;999.90;;;13.20;99.90;;;;;;5092161;28;20789;-68
2022/10/28 05:48:26;;;;;;;1999.90;999.90;;;13.20;99.90;;;;;;5092597;28;20461;-68
2022/10/28 05:50:52;;;;;;;1999.90;999.90;;;13.20;99.90;;;;;;5092265;28;20888;-68
2022/10/28 05:53:19;;;;;;;1999.90;999.90;;;13.10;99.90;;;;;;5092299;28;20449;-68
2022/10/28 05:55:47;;;;;;;1999.90;999.90;;;13.10;99.90;;;;;;5092232;28;20844;-68
2022/10/28 05:58:14;;;;;;;1999.90;999.90;;;13.00;99.90;;;;;;5092319;28;20462;-68
2022/10/28 06:00:41;;;;;;;1999.90;999.90;;;13.00;99.90;;;;;;5092325;28;20495;-68
2022/10/28 06:03:11;;;;;;;1999.90;999.90;;;13.00;99.90;;;;;;5091985;28;21063;-68
2022/10/28 06:05:41;;;;;;;1999.90;999.90;;;12.80;99.90;;;;;;5092274;28;20446;-68
2022/10/28 06:08:08;;;;;;;1999.90;999.90;;;12.80;99.90;;;;;;5092312;28;20462;-68
2022/10/28 06:10:35;;;;;;;1999.90;999.90;;;12.70;99.90;;;;;;5091733;28;20442;-68
2022/10/28 06:13:03;;;;;;;1999.90;999.90;;;12.70;99.90;;;;;;5091737;28;20442;-68
2022/10/28 06:15:30;;;;;;;1999.90;999.90;;;12.70;99.90;;;;;;5091905;28;20453;-68
2022/10/28 06:17:56;;;;;;;1999.90;999.90;;;12.60;99.90;;;;;;5092224;28;20860;-68
2022/10/28 06:20:23;;;;;;;1999.90;999.90;;;12.70;99.90;;;;;;5092057;28;20442;-68
2022/10/28 06:22:51;;;;;;;1999.90;999.90;;;12.80;99.90;;;;;;5091279;28;20461;-68
2022/10/28 06:25:18;;;;;;;1999.90;999.90;;;12.80;99.90;;;;;;5091636;28;20792;-68
2022/10/28 06:27:45;;;;;;;1999.90;999.90;;;12.90;99.90;;;;;;5092537;28;20461;-68
2022/10/28 06:30:14;;;;;;;1999.90;999.90;;;12.90;99.90;;;;;;5092288;28;20446;-68
2022/10/28 06:32:41;;;;;;;1999.90;999.90;;;12.90;99.90;;;;;;5091197;28;20794;-68
2022/10/28 06:35:08;;;;;;;1999.90;999.90;;;12.90;99.90;;;;;;5091425;28;20469;-68
2022/10/28 06:37:35;;;;;;;1999.90;999.90;;;13.00;99.90;;;;;;5091519;28;20485;-68
2022/10/28 06:40:01;;;;;;;1999.90;999.90;;;13.10;99.90;;;;;;5091725;28;20442;-68
2022/10/28 06:42:28;;;;;;;1999.90;999.90;;;13.10;99.90;;;;;;5091015;28;20446;-68
2022/10/28 06:44:55;;;;;;;1999.90;999.90;;;13.10;99.90;;;;;;5091312;28;20823;-68
2022/10/28 06:47:23;;;;;;;1999.90;999.90;;;13.20;99.90;;;;;;5091359;28;20449;-68
2022/10/28 06:49:50;;;;;;;1999.90;999.90;;;13.20;99.90;;;;;;5091496;28;20963;-68
2022/10/28 06:52:16;;;;;;;1999.90;999.90;;;13.30;99.90;;;;;;5090634;28;20442;-68
2022/10/28 06:54:43;;;;;;;1999.90;999.90;;;13.30;99.90;;;;;;5090949;28;20442;-68
2022/10/28 06:57:10;;;;;;;1999.90;999.90;;;13.30;99.90;;;;;;5091524;28;20481;-68
2022/10/28 06:59:37;;;;;;;1999.90;999.90;;;13.30;99.90;;;;;;5091338;28;20804;-68
2022/10/28 07:02:03;;;;;;;1999.90;999.90;;;13.40;99.90;;;;;;5090550;28;20446;-68
2022/10/28 07:04:33;;;;;;;1999.90;999.90;;;13.50;99.90;;;;;;5091311;28;20943;-68
2022/10/28 07:07:00;;;;;;;1999.90;999.90;;;13.50;99.90;;;;;;5091196;28;20492;-68
2022/10/28 07:09:27;;;;;;;1999.90;999.90;;;13.50;99.90;;;;;;5090922;28;20466;-68
2022/10/28 07:11:53;;;;;;;1999.90;999.90;;;13.50;99.90;;;;;;5090353;28;20450;-68
2022/10/28 07:14:20;;;;;;;1999.90;999.90;;;13.60;99.90;;;;;;5090592;28;20448;-68
2022/10/28 07:16:47;;;;;;;1999.90;999.90;;;13.60;99.90;;;;;;5090844;28;20845;-68
2022/10/28 07:19:14;;;;;;;1999.90;999.90;;;13.60;99.90;;;;;;5090785;28;20470;-68
2022/10/28 07:21:42;;;;;;;1999.90;999.90;;;13.70;99.90;;;;;;5090218;28;20435;-68
2022/10/28 07:24:09;;;;;;;1999.90;999.90;;;13.80;99.90;;;;;;5090964;28;20446;-68
2022/10/28 07:26:35;;;;;;;1999.90;999.90;;;13.90;99.90;;;;;;5090505;28;20788;-68
2022/10/28 07:29:02;;;;;;;1999.90;999.90;;;14.00;99.90;;;;;;5090922;28;20467;-68
2022/10/28 07:31:30;;;;;;;1999.90;999.90;;;14.10;99.90;;;;;;5090164;28;20449;-68
2022/10/28 07:33:57;;;;;;;1999.90;999.90;;;14.30;99.90;;;;;;5090039;28;20569;-68
2022/10/28 07:36:23;;;;;;;1999.90;999.90;;;14.40;99.90;;;;;;5090392;28;20792;-68
2022/10/28 07:38:52;;;;;;;1999.90;999.90;;;14.60;99.90;;;;;;5090647;28;20466;-68
2022/10/28 07:41:20;;;;;;;1999.90;999.90;;;14.70;99.90;;;;;;5090207;28;20453;-68
2022/10/28 07:43:47;;;;;;;1999.90;999.90;;;14.90;99.90;;;;;;5089568;28;20450;-68
2022/10/28 07:46:14;;;;;;;1999.90;999.90;;;15.00;99.90;;;;;;5089694;28;20529;-68
2022/10/28 07:48:41;;;;;;;1999.90;999.90;;;15.10;99.90;;;;;;5089934;28;20999;-69
2022/10/28 07:51:11;;;;;;;1999.90;999.90;;;15.20;99.90;;;;;;5089960;28;20469;-68
2022/10/28 07:53:38;;;;;;;1999.90;999.90;;;15.30;99.90;;;;;;5089966;28;20442;-69
2022/10/28 07:56:08;;;;;;;1999.90;999.90;;;15.40;99.90;;;;;;5088965;28;20453;-68
2022/10/28 07:58:36;;;;;;;1999.90;999.90;;;15.50;99.90;;;;;;5090027;28;20511;-68
2022/10/28 08:01:03;;;;;;;1999.90;999.90;;;15.60;99.90;;;;;;5089960;28;20445;-68
2022/10/28 08:03:30;;;;;;;1999.90;999.90;;;15.70;99.90;;;;;;5089585;28;20777;-68
2022/10/28 08:06:01;;;;;;;1999.90;999.90;;;15.80;99.90;;;;;;5088941;28;20967;-68
2022/10/28 08:08:27;;;;;;;1999.90;999.90;;;15.90;99.90;;;;;;5090216;28;20470;-68
2022/10/28 08:10:54;;;;;;;1999.90;999.90;;;16.00;99.90;;;;;;5089718;28;20438;-68
2022/10/28 08:13:22;;;;;;;1999.90;999.90;;;16.20;99.90;;;;;;5089392;28;20481;-68
2022/10/28 08:15:52;;;;;;;1999.90;999.90;;;16.40;99.90;;;;;;5089400;28;20448;-68
2022/10/28 08:18:19;;;;;;;1999.90;999.90;;;16.50;99.90;;;;;;5090179;28;20488;-68
2022/10/28 08:20:45;;;;;;;1999.90;999.90;;;16.60;99.90;;;;;;5089753;28;20450;-68
2022/10/28 08:23:12;;;;;;;1999.90;999.90;;;16.80;99.90;;;;;;5089371;28;20449;-69
2022/10/28 08:25:46;;;;;;;1999.90;999.90;;;17.00;99.90;;;;;;5089361;28;20813;-68
2022/10/28 08:28:13;;;;;;;1999.90;999.90;;;17.10;99.90;;;;;;5090063;28;20829;-68
2022/10/28 08:30:41;;;;;;;1999.90;999.90;;;17.20;99.90;;;;;;5089594;28;20442;-68
2022/10/28 08:33:08;;;;;;;1999.90;999.90;;;17.20;99.90;;;;;;5089433;28;20450;-68
2022/10/28 08:35:35;;;;;;;1999.90;999.90;;;17.10;99.90;;;;;;5089105;28;20469;-68
2022/10/28 08:38:02;;;;;;;1999.90;999.90;;;17.20;99.90;;;;;;5089474;28;20490;-68
2022/10/28 08:40:35;;;;;;;1999.90;999.90;;;17.10;99.90;;;;;;5089638;28;20454;-68
2022/10/28 08:43:06;;;;;;;1999.90;999.90;;;17.10;99.90;;;;;;5089453;28;20445;-68
2022/10/28 08:45:45;;;;;;;1999.90;999.90;;;17.20;99.90;;;;;;5089330;28;20450;-68
2022/10/28 08:48:19;;;;;;;1999.90;999.90;;;17.30;99.90;;;;;;5089636;28;20454;-68
2022/10/28 08:50:52;;;;;;;1999.90;999.90;;;17.50;99.90;;;;;;5089217;28;20818;-68
2022/10/28 08:53:24;;;;;;;1999.90;999.90;;;17.70;99.90;;;;;;5089413;28;20452;-68
2022/10/28 08:55:53;;;;;;;1999.90;999.90;;;17.90;99.90;;;;;;5089988;28;20455;-68
2022/10/28 08:58:24;;;;;;;1999.90;999.90;;;18.10;99.90;;;;;;5093704;28;20489;-68
2022/10/28 09:00:55;;;;;;;1999.90;999.90;;;18.30;99.90;;;;;;5093341;28;20445;-68
2022/10/28 09:03:25;;;;;;;1999.90;999.90;;;18.20;99.90;;;;;;5093464;28;20449;-68
2022/10/28 09:05:58;;;;;;;1999.90;999.90;;;18.40;99.90;;;;;;5093528;28;20445;-68
2022/10/28 09:08:27;;;;;;;1999.90;999.90;;;18.20;99.90;;;;;;5093625;28;20458;-68
2022/10/28 09:11:16;;;;;;;1999.90;999.90;;;18.00;99.90;;;;;;5093337;28;20482;-68
2022/10/28 09:13:54;;;;;;;1999.90;999.90;;;17.80;99.90;;;;;;5048600;28;20449;-68
2022/10/28 09:16:32;;;;;;;1999.90;999.90;;;17.70;99.90;;;;;;5093266;28;20555;-68
2022/10/28 09:19:04;;;;;;;1999.90;999.90;;;17.70;99.90;;;;;;5093448;28;20838;-68
2022/10/28 09:21:36;;;;;;;1999.90;999.90;;;17.90;99.90;;;;;;5092942;28;20442;-69
2022/10/28 09:24:14;;;;;;;1999.90;999.90;;;18.10;99.90;;;;;;5092944;28;20452;-68
2022/10/28 09:26:48;;;;;;;1999.90;999.90;;;18.30;99.90;;;;;;5093268;28;20442;-68
2022/10/28 09:29:31;;;;;;;1999.90;999.90;;;18.60;99.90;;;;;;5093156;28;20461;-68
2022/10/28 09:32:08;;;;;;;1999.90;999.90;;;18.80;99.90;;;;;;5092172;28;20446;-69
2022/10/28 09:34:40;;;;;;;1999.90;999.90;;;19.10;99.90;;;;;;5092274;28;20457;-68
2022/10/28 09:37:13;;;;;;;1999.90;999.90;;;19.10;99.90;;;;;;5093063;28;20489;-69
2022/10/28 09:39:43;;;;;;;1999.90;999.90;;;19.20;99.90;;;;;;5092724;28;20462;-68
2022/10/28 09:42:17;;;;;;;1999.90;999.90;;;19.10;99.90;;;;;;5092022;28;20449;-68
2022/10/28 09:44:49;;;;;;;1999.90;999.90;;;18.90;99.90;;;;;;5092423;28;20500;-68
2022/10/28 09:47:21;;;;;;;1999.90;999.90;;;18.90;99.90;;;;;;5093060;28;20437;-68
2022/10/28 09:49:50;;;;;;;1999.90;999.90;;;18.80;99.90;;;;;;5092563;28;20453;-68
2022/10/28 09:52:21;;;;;;;1999.90;999.90;;;18.70;99.90;;;;;;5091990;28;20814;-69
2022/10/28 09:54:51;;;;;;;1999.90;999.90;;;18.60;99.90;;;;;;5092022;28;20940;-68
2022/10/28 09:57:18;;;;;;;1999.90;999.90;;;18.70;99.90;;;;;;5092282;28;20474;-68
2022/10/28 09:59:45;;;;;;;1999.90;999.90;;;18.90;99.90;;;;;;5092490;28;20818;-68
2022/10/28 10:02:30;;;;;;;1999.90;999.90;;;19.00;99.90;;;;;;5091792;28;20454;-68
2022/10/28 10:04:58;;;;;;;1999.90;999.90;;;19.20;99.90;;;;;;5092182;28;20446;-68
2022/10/28 10:07:32;;;;;;;1999.90;999.90;;;19.40;99.90;;;;;;5091900;28;20461;-69
2022/10/28 10:10:02;;;;;;;1999.90;999.90;;;19.70;99.90;;;;;;5092204;28;20454;-68
2022/10/28 10:12:31;;;;;;;1999.90;999.90;;;20.00;99.90;;;;;;5091812;28;20820;-68
2022/10/28 10:14:59;;;;;;;1999.90;999.90;;;20.30;99.90;;;;;;5091921;28;20449;-68
2022/10/28 10:17:34;;;;;;;1999.90;999.90;;;20.40;99.90;;;;;;5091881;28;21006;-66
2022/10/28 10:20:04;;;;;;;1999.90;999.90;;;20.80;99.90;;;;;;5091999;28;20452;-66
2022/10/28 10:22:33;;;;;;;1999.90;999.90;;;21.40;99.90;;;;;;5091147;28;20817;-66
2022/10/28 10:25:00;;;;;;;1999.90;999.90;;;21.80;99.90;;;;;;5091866;28;20445;-66
2022/10/28 10:27:30;;;;;;;1999.90;999.90;;;21.90;99.90;;;;;;5091771;28;20446;-66
2022/10/28 10:29:57;;;;;;;1999.90;999.90;;;22.20;99.90;;;;;;5091962;28;20446;-66
2022/10/28 10:32:27;;;;;;;1999.90;999.90;;;22.40;99.90;;;;;;5091027;28;20453;-66
2022/10/28 10:35:00;;;;;;;1999.90;999.90;;;22.60;99.90;;;;;;5091273;28;20465;-69
2022/10/28 10:37:29;;;;;;;1999.90;999.90;;;22.70;99.90;;;;;;5092041;28;20821;-68
2022/10/28 10:40:03;;;;;;;1999.90;999.90;;;22.60;99.90;;;;;;5091389;28;20936;-68
2022/10/28 10:42:30;;;;;;;1999.90;999.90;;;22.00;99.90;;;;;;5091140;28;20442;-66
2022/10/28 10:45:01;;;;;;;1999.90;999.90;;;21.80;99.90;;;;;;5091303;28;20450;-66
2022/10/28 10:47:28;;;;;;;1999.90;999.90;;;21.50;99.90;;;;;;5091420;28;20449;-66
2022/10/28 10:50:21;;;;;;;1999.90;999.90;;;21.40;99.90;;;;;;5091394;28;20445;-66
2022/10/28 10:52:50;;;;;;;1999.90;999.90;;;21.40;99.90;;;;;;5090866;28;21090;-68
2022/10/28 10:55:23;;;;;;;1999.90;999.90;;;20.90;99.90;;;;;;5091165;28;20442;-68
2022/10/28 10:57:50;;;;;;;1999.90;999.90;;;20.60;99.90;;;;;;5091238;28;20830;-68
2022/10/28 11:00:22;;;;;;;1999.90;999.90;;;20.50;99.90;;;;;;5091516;28;20442;-68
2022/10/28 11:02:49;;;;;;;1999.90;999.90;;;20.50;99.90;;;;;;5090308;28;20455;-68
2022/10/28 11:05:22;;;;;;;1999.90;999.90;;;20.50;99.90;;;;;;5090940;28;20445;-68
2022/10/28 11:07:51;;;;;;;1999.90;999.90;;;20.60;99.90;;;;;;5091204;28;20914;-68
2022/10/28 11:10:26;;;;;;;1999.90;999.90;;;20.70;99.90;;;;;;5091023;28;20442;-68
2022/10/28 11:12:55;;;;;;;1999.90;999.90;;;20.70;99.90;;;;;;5090390;28;20454;-68
2022/10/28 11:15:26;;;;;;;1999.90;999.90;;;20.90;99.90;;;;;;5090841;28;20442;-69
2022/10/28 11:17:58;;;;;;;1999.90;999.90;;;21.00;99.90;;;;;;5090872;28;20486;-68
2022/10/28 11:20:29;;;;;;;1999.90;999.90;;;21.30;99.90;;;;;;5090483;28;20827;-66
2022/10/28 11:23:11;;;;;;;1999.90;999.90;;;21.50;99.90;;;;;;5090333;28;20454;-66
2022/10/28 11:25:40;;;;;;;1999.90;999.90;;;21.80;99.90;;;;;;5090724;28;20449;-66
2022/10/28 11:28:28;;;;;;;1999.90;999.90;;;22.00;99.90;;;;;;5090999;28;20996;-66
2022/10/28 11:31:07;;;;;;;1999.90;999.90;;;22.10;99.90;;;;;;5090435;28;20445;-66
2022/10/28 11:33:42;;;;;;;1999.90;999.90;;;22.20;99.90;;;;;;5090461;28;20449;-65
2022/10/28 11:36:20;;;;;;;1999.90;999.90;;;22.20;99.90;;;;;;5090526;28;20438;-66
2022/10/28 11:39:05;;;;;;;1999.90;999.90;;;22.00;99.90;;;;;;5090576;28;20509;-66
2022/10/28 11:41:43;;;;;;;1999.90;999.90;;;21.90;99.90;;;;;;5090535;28;20442;-66
2022/10/28 11:44:23;;;;;;;1999.90;999.90;;;22.00;99.90;;;;;;5090598;28;20446;-67
2022/10/28 11:47:04;;;;;;;1999.90;999.90;;;22.00;99.90;;;;;;5090466;28;20449;-68
2022/10/28 11:49:44;;;;;;;1999.90;999.90;;;22.00;99.90;;;;;;5087308;28;20983;-66
2022/10/28 11:52:25;;;;;;;1999.90;999.90;;;22.00;99.90;;;;;;5086982;28;20442;-67
2022/10/28 11:55:04;;;;;;;1999.90;999.90;;;21.90;99.90;;;;;;5086230;28;20975;-66
2022/10/28 11:57:44;;;;;;;1999.90;999.90;;;21.70;99.90;;;;;;5090123;28;20599;-67
2022/10/28 12:00:37;;;;;;;1999.90;999.90;;;21.30;99.90;;;;;;5089763;28;20438;-67
2022/10/28 12:03:23;;;;;;;1999.90;999.90;;;20.90;99.90;;;;;;5089875;28;20449;-67
2022/10/28 12:05:55;;;;;;;1999.90;999.90;;;20.40;99.90;;;;;;5089915;28;20434;-67
2022/10/28 12:08:34;;;;;;;1999.90;999.90;;;20.30;99.90;;;;;;5089917;28;20454;-67
2022/10/28 12:11:13;;;;;;;1999.90;999.90;;;20.60;99.90;;;;;;5089293;28;20446;-67
2022/10/28 12:13:45;;;;;;;1999.90;999.90;;;20.80;99.90;;;;;;5089792;28;20446;-66